»·PEaware :: N22ST KTUS-KPRC

N22ST :: KTUS-KPRC

FLIGHT INFORMATION

Flight Status: Arrived
Operator: Privately registered:
United States
More flights under this callsign
Pilot: Liam T. (43559)
Aircraft: CIRRUS SR-22
(SR22)
More flights by this aircraft type
Origin: KTUS Tucson Intl
United States
Destination: KPRC Love
United States
More flights between these airports :: More routes between these airports
Route:
File this flight plan on PilotEdge
Remarks:
Altitude:
(Current/Filed)
0ft
Speed:
(Current/Filed)
0kts
Departed: 23-Oct-23 03:33 PM
Arrived: 23-Oct-23 04:36 PM
Distance/Time
Traveled:
169nm/1:03
Distance/Time
To Go:
Arrived

Flight Plot

Page will automatically refresh every two minutes.

Flight plan parsing failed; only flown route is shown


Map Options




Map Legend


Flown Route
Filed Route
Departure Airport
Arrival Airport
Navaid (VOR, NDB)
Fix

Horizontal Profiles

Position Reports

Time Latitude Longitude Heading Altitude Ground
Speed
23-Oct-23 15:19 32.126203 -110.944647 45 2572ft 0kts
23-Oct-23 15:20 32.126203 -110.944647 45 2572ft 0kts
23-Oct-23 15:21 32.126203 -110.944647 45 2572ft 0kts
23-Oct-23 15:22 32.126203 -110.944647 45 2572ft 0kts
23-Oct-23 15:23 32.126203 -110.944647 45 2572ft 0kts
23-Oct-23 15:24 32.126203 -110.944647 45 2572ft 0kts
23-Oct-23 15:25 32.126689 -110.944818 314 2570ft 13kts
23-Oct-23 15:26 32.124790 -110.947630 224 2570ft 8kts
23-Oct-23 15:27 32.124613 -110.947837 225 2570ft 0kts
23-Oct-23 15:28 32.124613 -110.947837 225 2570ft 0kts
23-Oct-23 15:29 32.124613 -110.947837 225 2570ft 0kts
23-Oct-23 15:30 32.124613 -110.947837 225 2570ft 0kts
23-Oct-23 15:31 32.124611 -110.947839 225 2570ft 0kts
23-Oct-23 15:32 32.119515 -110.943702 138 2630ft 83kts
23-Oct-23 15:33 32.102052 -110.923871 207 3927ft 83kts
23-Oct-23 15:34 32.115064 -110.952746 319 4751ft 126kts
23-Oct-23 15:35 32.151020 -110.964392 345 5851ft 133kts
23-Oct-23 15:36 32.184317 -110.978059 325 6894ft 124kts
23-Oct-23 15:37 32.215732 -110.997460 320 7644ft 122kts
23-Oct-23 15:38 32.242305 -111.022396 310 8621ft 115kts
23-Oct-23 15:39 32.266714 -111.050174 298 9502ft 129kts
23-Oct-23 15:40 32.293631 -111.090184 302 9638ft 171kts
23-Oct-23 15:41 32.320108 -111.135655 299 9819ft 187kts
23-Oct-23 15:42 32.352003 -111.187470 302 9449ft 186kts
23-Oct-23 15:43 32.383656 -111.233710 315 9439ft 181kts
23-Oct-23 15:44 32.423412 -111.270302 317 9427ft 180kts
23-Oct-23 15:45 32.462851 -111.306818 317 9444ft 179kts
23-Oct-23 15:46 32.502253 -111.343624 318 9482ft 179kts
23-Oct-23 15:47 32.541419 -111.380506 317 9503ft 181kts
23-Oct-23 15:48 32.580542 -111.417628 317 9504ft 180kts
23-Oct-23 15:49 32.608779 -111.463081 296 9493ft 175kts
23-Oct-23 15:50 32.649024 -111.496660 331 9491ft 182kts
23-Oct-23 15:51 32.694599 -111.523941 330 9484ft 184kts
23-Oct-23 15:52 32.740667 -111.551559 330 9477ft 188kts
23-Oct-23 15:53 32.788526 -111.580287 330 9486ft 191kts
23-Oct-23 15:54 32.835688 -111.608621 330 9490ft 189kts
23-Oct-23 15:55 32.882653 -111.636881 329 9500ft 190kts
23-Oct-23 15:56 32.930235 -111.665535 330 9507ft 192kts
23-Oct-23 15:57 32.978014 -111.694332 329 9512ft 193kts
23-Oct-23 15:58 33.025903 -111.723242 330 9519ft 193kts
23-Oct-23 15:59 33.073882 -111.752224 329 9515ft 194kts
23-Oct-23 16:00 33.121851 -111.781227 329 9497ft 193kts
23-Oct-23 16:01 33.169633 -111.810159 329 9500ft 191kts
23-Oct-23 16:02 33.217307 -111.839056 329 9499ft 192kts
23-Oct-23 16:03 33.265264 -111.868161 329 9505ft 194kts
23-Oct-23 16:04 33.313449 -111.897428 328 9508ft 195kts
23-Oct-23 16:05 33.361899 -111.926884 328 9505ft 195kts
23-Oct-23 16:06 33.410561 -111.956518 328 9507ft 196kts
23-Oct-23 16:07 33.459437 -111.986245 328 9509ft 196kts
23-Oct-23 16:08 33.508235 -112.015590 329 9508ft 196kts
23-Oct-23 16:09 33.556967 -112.044519 329 9500ft 196kts
23-Oct-23 16:10 33.609470 -112.060673 2 9533ft 199kts
23-Oct-23 16:11 33.664843 -112.061135 346 9531ft 198kts
23-Oct-23 16:12 33.716975 -112.080992 338 9534ft 196kts
23-Oct-23 16:13 33.768580 -112.101121 338 9535ft 193kts
23-Oct-23 16:14 33.819864 -112.121210 338 9528ft 193kts
23-Oct-23 16:15 33.870907 -112.141240 338 9518ft 191kts
23-Oct-23 16:16 33.921415 -112.161078 338 9508ft 190kts
23-Oct-23 16:17 33.971296 -112.180693 339 9509ft 188kts
23-Oct-23 16:18 34.020897 -112.200232 339 9507ft 188kts
23-Oct-23 16:19 34.070787 -112.219905 339 9512ft 189kts
23-Oct-23 16:20 34.121225 -112.239785 340 9495ft 191kts
23-Oct-23 16:21 34.170680 -112.259378 339 9511ft 186kts
23-Oct-23 16:22 34.219298 -112.278637 339 9520ft 179kts
23-Oct-23 16:23 34.269069 -112.298302 340 9318ft 188kts
23-Oct-23 16:24 34.318478 -112.317893 340 9318ft 183kts
23-Oct-23 16:25 34.367605 -112.337399 340 9356ft 187kts
23-Oct-23 16:26 34.417003 -112.357093 341 9392ft 188kts
23-Oct-23 16:27 34.465956 -112.376527 341 9427ft 184kts
23-Oct-23 16:28 34.516565 -112.396666 340 8807ft 204kts
23-Oct-23 16:29 34.569902 -112.388583 24 8503ft 189kts
23-Oct-23 16:30 34.616866 -112.360942 40 8210ft 190kts
23-Oct-23 16:31 34.658334 -112.325985 19 7686ft 189kts
23-Oct-23 16:32 34.689373 -112.353825 296 6908ft 149kts
23-Oct-23 16:33 34.685915 -112.386554 216 6403ft 78kts
23-Oct-23 16:34 34.670034 -112.403130 217 5538ft 68kts
23-Oct-23 16:35 34.658107 -112.415630 221 4987ft 21kts
23-Oct-23 16:36 34.656832 -112.415604 158 4989ft 0kts
23-Oct-23 16:37 34.654921 -112.417267 221 4997ft 17kts
23-Oct-23 16:38 34.652699 -112.419635 221 5009ft 6kts
23-Oct-23 16:39 34.650444 -112.422012 221 5020ft 11kts
23-Oct-23 16:40 34.647419 -112.425154 190 5023ft 9kts
23-Oct-23 16:41 34.646308 -112.424687 232 5026ft 4kts
23-Oct-23 16:42 34.646297 -112.424703 230 5026ft 0kts
23-Oct-23 16:43 34.646297 -112.424703 230 5026ft 0kts

Navigation Log

Ident Type
Flight plan parsing failed, navigation log unavailable